createdAt,value
2019-05-13T00:00:53.891Z,43.80
2019-05-13T00:03:19.859Z,44.10
2019-05-13T00:05:47.012Z,44.00
2019-05-13T00:08:14.241Z,43.90
2019-05-13T00:10:43.522Z,43.70
2019-05-13T00:13:08.614Z,43.80
2019-05-13T00:15:35.885Z,43.70
2019-05-13T00:18:03.869Z,43.80
2019-05-13T00:20:30.174Z,43.80
2019-05-13T00:22:57.213Z,43.80
2019-05-13T00:25:24.343Z,43.70
2019-05-13T00:27:53.706Z,43.90
2019-05-13T00:30:18.879Z,43.80
2019-05-13T00:32:46.059Z,43.90
2019-05-13T00:35:14.231Z,43.70
2019-05-13T00:37:40.297Z,43.60
2019-05-13T00:40:07.360Z,43.70
2019-05-13T00:42:34.524Z,43.60
2019-05-13T00:45:03.886Z,43.70
2019-05-13T00:47:28.824Z,43.70
2019-05-13T00:49:55.974Z,43.70
2019-05-13T00:52:23.565Z,43.50
2019-05-13T00:54:50.217Z,43.60
2019-05-13T00:57:17.347Z,43.60
2019-05-13T00:59:44.477Z,43.70
2019-05-13T01:02:13.830Z,43.60
2019-05-13T01:04:38.796Z,43.60
2019-05-13T01:07:05.904Z,43.80
2019-05-13T01:09:34.225Z,43.50
2019-05-13T01:12:00.209Z,43.60
2019-05-13T01:14:27.317Z,43.60
2019-05-13T01:16:54.524Z,43.80
2019-05-13T01:19:23.570Z,43.60
2019-05-13T01:21:48.655Z,43.60
2019-05-13T01:24:15.760Z,43.60
2019-05-13T01:26:43.842Z,43.60
2019-05-13T01:29:10.056Z,43.60
2019-05-13T01:31:37.201Z,43.50
2019-05-13T01:34:04.322Z,43.70
2019-05-13T01:36:33.528Z,43.80
2019-05-13T01:38:58.651Z,43.50
2019-05-13T01:41:25.811Z,43.50
2019-05-13T01:43:54.336Z,43.60
2019-05-13T01:46:20.051Z,43.60
2019-05-13T01:48:47.102Z,43.60
2019-05-13T01:51:14.199Z,43.50
2019-05-13T01:53:41.298Z,43.50
2019-05-13T01:56:08.372Z,43.70
2019-05-13T01:58:35.480Z,43.80
2019-05-13T02:01:04.968Z,43.60
2019-05-13T02:03:29.812Z,43.70
2019-05-13T02:05:56.961Z,43.80
2019-05-13T02:08:24.734Z,43.60
2019-05-13T02:10:54.385Z,43.60
2019-05-13T02:13:20.285Z,43.60
2019-05-13T02:15:47.444Z,43.70
2019-05-13T02:18:14.557Z,43.70
2019-05-13T02:20:44.078Z,43.60
2019-05-13T02:23:09.448Z,43.60
2019-05-13T02:25:36.596Z,43.50
2019-05-13T02:28:09.367Z,43.60
2019-05-13T02:30:34.663Z,43.50
2019-05-13T02:32:58.232Z,43.60
2019-05-13T02:35:25.410Z,43.70
2019-05-13T02:37:52.728Z,43.70
2019-05-13T02:40:22.601Z,43.60
2019-05-13T02:42:46.880Z,43.60
2019-05-13T02:45:14.005Z,43.60
2019-05-13T02:47:44.176Z,43.60
2019-05-13T02:50:08.533Z,43.80
2019-05-13T02:52:35.612Z,43.80
2019-05-13T02:55:04.036Z,43.70
2019-05-13T02:57:32.774Z,43.80
2019-05-13T02:59:57.266Z,43.60
2019-05-13T03:02:24.367Z,43.70
2019-05-13T03:04:52.396Z,43.70
2019-05-13T03:07:18.678Z,43.60
2019-05-13T03:09:45.767Z,43.80
2019-05-13T03:12:13.416Z,43.70
2019-05-13T03:14:45.144Z,43.80
2019-05-13T03:17:12.995Z,43.70
2019-05-13T03:19:38.411Z,43.70
2019-05-13T03:22:05.578Z,43.70
2019-05-13T03:24:33.254Z,43.60
2019-05-13T03:27:02.548Z,43.70
2019-05-13T03:29:27.198Z,43.70
2019-05-13T03:31:56.173Z,43.80
2019-05-13T03:34:26.373Z,43.80
2019-05-13T03:36:48.726Z,43.70
2019-05-13T03:39:16.738Z,43.70
2019-05-13T03:41:42.874Z,43.80
2019-05-13T03:44:13.117Z,43.70
2019-05-13T03:46:38.072Z,43.70
2019-05-13T03:49:05.190Z,43.80
2019-05-13T03:51:32.795Z,43.80
2019-05-13T03:54:02.778Z,43.80
2019-05-13T03:56:26.496Z,43.80
2019-05-13T03:58:53.995Z,43.90
2019-05-13T04:01:22.346Z,43.80
2019-05-13T04:03:47.861Z,43.90
2019-05-13T04:06:14.956Z,43.80
2019-05-13T04:08:43.508Z,43.80
2019-05-13T04:11:12.297Z,43.80
2019-05-13T04:13:36.477Z,43.80
2019-05-13T04:16:04.325Z,43.80
2019-05-13T04:18:31.979Z,43.80
2019-05-13T04:20:57.837Z,43.90
2019-05-13T04:23:25.124Z,43.90
2019-05-13T04:25:53.642Z,43.90
2019-05-13T04:28:22.022Z,43.80
2019-05-13T04:30:46.582Z,43.90
2019-05-13T04:33:14.141Z,44.00
2019-05-13T04:35:42.520Z,44.00
2019-05-13T04:38:10.219Z,44.00
2019-05-13T04:40:35.185Z,43.80
2019-05-13T04:43:03.087Z,43.90
2019-05-13T04:45:32.673Z,43.80
2019-05-13T04:47:56.550Z,43.80
2019-05-13T04:50:23.661Z,43.90
2019-05-13T04:52:52.481Z,43.90
2019-05-13T04:55:18.626Z,43.90
2019-05-13T04:57:45.758Z,44.00
2019-05-13T05:00:13.146Z,44.00
2019-05-13T05:02:53.997Z,44.00
2019-05-13T05:05:41.885Z,44.00
2019-05-13T05:08:18.324Z,44.00
2019-05-13T05:10:55.652Z,44.00
2019-05-13T05:13:32.201Z,44.10
2019-05-13T05:16:02.825Z,44.00
2019-05-13T05:18:38.674Z,44.00
2019-05-13T05:21:11.767Z,44.10
2019-05-13T05:23:51.499Z,44.20
2019-05-13T05:26:32.296Z,44.00
2019-05-13T05:29:14.440Z,44.10
2019-05-13T05:31:52.025Z,44.10
2019-05-13T05:35:27.137Z,44.30
2019-05-13T05:38:07.337Z,44.20
2019-05-13T05:40:34.922Z,44.80
2019-05-13T05:43:02.418Z,44.30
2019-05-13T05:45:29.178Z,44.20
2019-05-13T05:47:56.252Z,44.20
2019-05-13T05:50:23.359Z,44.80
2019-05-13T05:52:51.381Z,44.20
2019-05-13T05:55:17.588Z,44.20
2019-05-13T05:57:44.628Z,44.30
2019-05-13T06:00:11.692Z,44.30
2019-05-13T06:02:42.510Z,44.30
2019-05-13T06:05:06.980Z,44.30
2019-05-13T06:07:34.070Z,44.40
2019-05-13T06:10:02.246Z,44.50
2019-05-13T06:12:28.376Z,44.50
2019-05-13T06:14:55.496Z,44.40
2019-05-13T06:17:22.558Z,44.40
2019-05-13T06:19:51.237Z,44.50
2019-05-13T06:22:16.905Z,44.40
2019-05-13T06:24:43.969Z,44.40
2019-05-13T06:27:11.842Z,44.40
2019-05-13T06:29:38.204Z,44.50
2019-05-13T06:32:17.719Z,44.50
2019-05-13T06:34:33.049Z,44.40
2019-05-13T06:37:01.776Z,44.50
2019-05-13T06:39:26.653Z,44.60
2019-05-13T06:41:53.757Z,44.50
2019-05-13T06:44:21.409Z,44.50
2019-05-13T06:46:47.983Z,44.50
2019-05-13T06:49:15.151Z,44.60
2019-05-13T06:51:42.287Z,44.60
2019-05-13T06:54:11.243Z,44.60
2019-05-13T06:56:36.461Z,44.50
2019-05-13T06:59:03.545Z,44.60
2019-05-13T07:01:32.427Z,44.60
2019-05-13T07:03:58.832Z,44.60
2019-05-13T07:06:27.468Z,44.60
2019-05-13T07:08:53.028Z,44.60
2019-05-13T07:11:22.327Z,44.60
2019-05-13T07:13:47.301Z,44.60
2019-05-13T07:16:14.352Z,44.60
2019-05-13T07:18:41.658Z,44.70
2019-05-13T07:21:08.621Z,44.60
2019-05-13T07:23:35.699Z,44.70
2019-05-13T07:26:02.789Z,44.60
2019-05-13T07:28:32.301Z,44.70
2019-05-13T07:30:57.171Z,44.60
2019-05-13T07:33:24.319Z,44.70
2019-05-13T07:35:57.116Z,44.70
2019-05-13T07:38:18.519Z,44.60
2019-05-13T07:40:45.582Z,44.70
2019-05-13T07:43:12.655Z,44.70
2019-05-13T07:45:42.077Z,44.70
2019-05-13T07:48:19.456Z,44.60
2019-05-13T07:50:34.080Z,44.70
2019-05-13T07:53:02.297Z,44.60
2019-05-13T07:55:28.368Z,44.70
2019-05-13T07:57:55.529Z,44.70
2019-05-13T08:00:22.609Z,44.60
2019-05-13T08:02:52.161Z,44.60
2019-05-13T08:05:16.924Z,44.60
2019-05-13T08:07:44.003Z,44.80
2019-05-13T08:10:11.655Z,44.60
2019-05-13T08:12:38.239Z,44.70
2019-05-13T08:15:05.319Z,44.60
2019-05-13T08:17:32.837Z,44.60
2019-05-13T08:19:59.589Z,44.60
2019-05-13T08:22:26.661Z,44.60
2019-05-13T08:24:54.493Z,44.60
2019-05-13T08:27:29.800Z,44.50
2019-05-13T08:29:48.112Z,44.50
2019-05-13T08:32:15.217Z,44.60
2019-05-13T08:34:42.280Z,44.50
2019-05-13T08:37:11.353Z,44.50
2019-05-13T08:39:38.607Z,44.50
2019-05-13T08:42:15.183Z,44.30
2019-05-13T08:44:32.199Z,44.90
2019-05-13T08:46:57.940Z,44.30
2019-05-13T08:49:25.035Z,44.30
2019-05-13T08:51:52.762Z,44.90
2019-05-13T08:54:21.811Z,44.30
2019-05-13T08:56:46.396Z,44.20
2019-05-13T08:59:13.612Z,44.20
2019-05-13T09:01:42.691Z,44.30
2019-05-13T09:04:08.118Z,44.20
2019-05-13T09:06:35.217Z,44.30
2019-05-13T09:09:02.561Z,44.20
2019-05-13T09:11:31.514Z,44.20
2019-05-13T09:13:56.704Z,44.30
2019-05-13T09:16:23.913Z,44.20
2019-05-13T09:18:52.074Z,44.20
2019-05-13T09:21:18.051Z,44.10
2019-05-13T09:23:45.142Z,44.10
2019-05-13T09:26:12.280Z,44.10
2019-05-13T09:28:41.561Z,44.10
2019-05-13T09:31:06.516Z,44.10
2019-05-13T09:33:33.601Z,44.00
2019-05-13T09:36:02.110Z,44.00
2019-05-13T09:38:27.960Z,44.00
2019-05-13T09:40:55.089Z,44.00
2019-05-13T09:43:22.393Z,44.00
2019-05-13T09:45:49.362Z,44.00
2019-05-13T09:48:16.459Z,44.00
2019-05-13T09:50:43.551Z,43.90
2019-05-13T09:53:11.604Z,44.00
2019-05-13T09:55:38.043Z,44.00
2019-05-13T09:58:05.116Z,43.90
2019-05-13T10:00:32.455Z,44.00
2019-05-13T10:03:02.017Z,43.90
2019-05-13T10:05:26.560Z,43.90
2019-05-13T10:07:53.721Z,43.90
2019-05-13T10:10:22.408Z,43.90
2019-05-13T10:15:15.021Z,43.90
2019-05-13T10:17:42.954Z,43.90
2019-05-13T10:20:11.947Z,43.80
2019-05-13T10:22:36.345Z,43.90
2019-05-13T10:25:03.813Z,43.80
2019-05-13T10:27:32.525Z,43.80
2019-05-13T10:29:58.028Z,43.80
2019-05-13T10:32:25.115Z,43.80
2019-05-13T10:34:52.516Z,43.80
2019-05-13T10:37:21.877Z,43.80
2019-05-13T10:39:46.696Z,43.90
2019-05-13T10:42:13.840Z,43.80
2019-05-13T10:44:42.201Z,43.80
2019-05-13T10:47:08.137Z,43.80
2019-05-13T10:49:35.312Z,43.80
2019-05-13T10:52:03.145Z,43.70
2019-05-13T10:54:32.281Z,43.80
2019-05-13T10:56:59.685Z,43.80
2019-05-13T10:59:23.900Z,43.70
2019-05-13T11:01:51.025Z,43.70
2019-05-13T11:04:18.117Z,43.70
2019-05-13T11:06:45.248Z,43.50
2019-05-13T11:09:13.239Z,43.20
2019-05-13T11:11:41.411Z,43.50
2019-05-13T11:14:11.005Z,43.20
2019-05-13T11:16:33.851Z,43.10
2019-05-13T11:19:02.776Z,43.20
2019-05-13T11:21:28.092Z,43.30
2019-05-13T11:23:55.153Z,43.80
2019-05-13T11:26:22.343Z,43.20
2019-05-13T11:28:51.933Z,42.80
2019-05-13T11:31:16.543Z,43.00
2019-05-13T11:33:43.660Z,43.00
2019-05-13T11:36:12.858Z,43.00
2019-05-13T11:38:37.876Z,42.90
2019-05-13T11:41:04.959Z,43.00
2019-05-13T11:46:01.957Z,43.10
2019-05-13T11:48:26.293Z,43.00
2019-05-13T11:50:54.240Z,43.00
2019-05-13T11:53:33.211Z,43.00
2019-05-13T11:55:47.810Z,43.50
2019-05-13T11:58:15.041Z,43.00
2019-05-13T12:00:53.081Z,43.10
2019-05-13T12:03:22.694Z,43.60
2019-05-13T12:05:46.549Z,43.20
2019-05-13T12:08:13.634Z,43.00
2019-05-13T12:10:44.037Z,42.70
2019-05-13T12:13:07.849Z,43.30
2019-05-13T12:15:46.040Z,43.00
2019-05-13T12:18:02.956Z,43.00
2019-05-13T12:20:32.363Z,42.60
2019-05-13T12:22:56.436Z,42.90
2019-05-13T12:25:23.620Z,42.90
2019-05-13T12:27:51.931Z,42.70
2019-05-13T12:30:17.952Z,42.60
2019-05-13T12:32:45.144Z,42.60
2019-05-13T12:35:13.368Z,42.50
2019-05-13T12:37:41.915Z,42.40
2019-05-13T12:40:06.453Z,42.40
2019-05-13T12:42:33.983Z,42.70
2019-05-13T12:45:09.348Z,42.50
2019-05-13T12:47:27.905Z,42.30
2019-05-13T12:49:55.024Z,42.30
2019-05-13T12:52:22.890Z,42.30
2019-05-13T12:54:49.334Z,42.50
2019-05-13T12:57:16.567Z,42.20
2019-05-13T12:59:43.723Z,42.30
2019-05-13T13:02:13.420Z,42.30
2019-05-13T13:05:06.841Z,42.50
2019-05-13T13:07:07.701Z,42.60
2019-05-13T13:09:35.783Z,42.50
2019-05-13T13:12:03.162Z,42.60
2019-05-13T13:14:38.378Z,42.80
2019-05-13T13:17:03.447Z,42.60
2019-05-13T13:19:26.263Z,42.50
2019-05-13T13:21:53.961Z,42.30
2019-05-13T13:24:23.653Z,42.50
2019-05-13T13:26:47.926Z,42.30
2019-05-13T13:29:15.203Z,42.30
2019-05-13T13:31:43.441Z,42.30
2019-05-13T13:34:16.347Z,42.50
2019-05-13T13:36:36.504Z,42.50
2019-05-13T13:39:05.200Z,42.70
2019-05-13T13:41:32.940Z,42.50
2019-05-13T13:44:04.708Z,42.50
2019-05-13T13:46:42.499Z,42.50
2019-05-13T13:48:55.479Z,42.40
2019-05-13T13:51:26.337Z,42.20
2019-05-13T13:53:48.029Z,42.10
2019-05-13T13:56:15.239Z,42.40
2019-05-13T13:58:43.798Z,42.40
2019-05-13T14:01:17.754Z,42.10
2019-05-13T14:03:36.539Z,42.30
2019-05-13T14:06:06.364Z,42.60
2019-05-13T14:06:25.607Z,43.90
2019-05-13T14:06:29.231Z,43.30
2019-05-13T14:08:30.829Z,42.40
2019-05-13T14:10:57.951Z,42.50
2019-05-13T14:13:25.149Z,42.20
2019-05-13T14:15:52.904Z,42.30
2019-05-13T14:18:23.865Z,42.40
2019-05-13T14:20:46.563Z,42.50
2019-05-13T14:23:13.692Z,42.40
2019-05-13T14:25:42.081Z,42.30
2019-05-13T14:28:07.882Z,42.50
2019-05-13T14:30:34.997Z,42.50
2019-05-13T14:33:02.416Z,42.40
2019-05-13T14:35:29.287Z,42.60
2019-05-13T14:37:56.473Z,42.30
2019-05-13T14:40:23.560Z,42.50
2019-05-13T14:42:52.679Z,42.50
2019-05-13T14:45:20.613Z,42.50
2019-05-13T14:47:44.989Z,42.90
2019-05-13T14:50:12.281Z,42.70
2019-05-13T14:52:41.507Z,42.90
2019-05-13T14:55:06.438Z,42.90
2019-05-13T14:57:33.617Z,42.70
2019-05-13T15:00:02.414Z,42.60
2019-05-13T15:02:27.952Z,42.60
2019-05-13T15:04:55.066Z,42.50
2019-05-13T15:07:22.156Z,43.10
2019-05-13T15:09:51.451Z,42.60
2019-05-13T15:12:16.524Z,43.00
2019-05-13T15:14:44.583Z,43.00
2019-05-13T15:17:12.767Z,42.80
2019-05-13T15:19:38.915Z,42.80
2019-05-13T15:22:06.683Z,42.60
2019-05-13T15:24:33.814Z,42.80
2019-05-13T15:27:00.895Z,42.50
2019-05-13T15:29:28.528Z,42.90
2019-05-13T15:31:55.687Z,43.00
2019-05-13T15:34:22.768Z,42.90
2019-05-13T15:36:50.981Z,42.60
2019-05-13T15:39:17.178Z,42.70
2019-05-13T15:41:44.295Z,42.50
2019-05-13T15:44:11.572Z,42.70
2019-05-13T15:46:38.592Z,42.80
2019-05-13T15:49:05.673Z,42.70
2019-05-13T15:51:32.795Z,43.30
2019-05-13T15:54:02.304Z,42.70
2019-05-13T15:56:27.054Z,42.60
2019-05-13T15:58:54.204Z,42.50
2019-05-13T16:01:22.935Z,42.40
2019-05-13T16:03:48.408Z,42.50
2019-05-13T16:06:15.507Z,42.50
2019-05-13T16:08:43.455Z,42.70
2019-05-13T16:11:12.002Z,42.50
2019-05-13T16:13:37.061Z,42.50
2019-05-13T16:16:04.161Z,42.40
2019-05-13T16:18:31.833Z,41.80
2019-05-13T16:20:58.610Z,42.30
2019-05-13T16:23:25.727Z,42.50
2019-05-13T16:25:52.890Z,42.50
2019-05-13T16:28:20.177Z,42.70
2019-05-13T16:30:47.344Z,42.90
2019-05-13T16:33:14.480Z,42.80
2019-05-13T16:35:42.519Z,42.80
2019-05-13T16:38:11.151Z,42.90
2019-05-13T16:40:36.877Z,43.00
2019-05-13T16:43:03.351Z,42.90
2019-05-13T16:45:31.606Z,43.00
2019-05-13T16:47:59.484Z,43.00
2019-05-13T16:50:24.800Z,43.00
2019-05-13T16:52:52.190Z,43.00
2019-05-13T16:55:21.051Z,43.10
2019-05-13T16:57:46.429Z,43.10
2019-05-13T17:00:13.500Z,43.10
2019-05-13T17:02:42.118Z,43.10
2019-05-13T17:05:07.692Z,43.10
2019-05-13T17:07:34.797Z,43.10
2019-05-13T17:10:03.714Z,43.20
2019-05-13T17:12:29.068Z,43.20
2019-05-13T17:14:56.120Z,43.20
2019-05-13T17:17:23.212Z,43.10
2019-05-13T17:19:53.540Z,43.20
2019-05-13T17:22:17.426Z,43.30
2019-05-13T17:24:44.492Z,43.20
2019-05-13T17:27:12.136Z,43.20
2019-05-13T17:29:38.656Z,43.20
2019-05-13T17:32:05.735Z,43.20
2019-05-13T17:34:32.892Z,43.20
2019-05-13T17:37:02.349Z,43.20
2019-05-13T17:39:27.161Z,43.30
2019-05-13T17:41:54.277Z,43.30
2019-05-13T17:44:21.973Z,43.30
2019-05-13T17:46:48.864Z,43.30
2019-05-13T17:49:15.958Z,43.30
2019-05-13T17:51:43.474Z,43.30
2019-05-13T17:54:11.849Z,43.30
2019-05-13T17:56:37.762Z,43.30
2019-05-13T17:59:04.932Z,43.30
2019-05-13T18:01:33.391Z,43.30
2019-05-13T18:04:02.391Z,43.30
2019-05-13T18:06:27.636Z,43.30
2019-05-13T18:08:54.678Z,43.30
2019-05-13T18:11:22.069Z,43.30
2019-05-13T18:13:51.694Z,43.40
2019-05-13T18:16:16.468Z,43.30
2019-05-13T18:18:47.349Z,43.30
2019-05-13T18:21:11.902Z,43.30
2019-05-13T18:23:37.777Z,43.30
2019-05-13T18:26:04.944Z,43.30
2019-05-13T18:28:32.064Z,43.40
2019-05-13T18:31:01.519Z,43.30
2019-05-13T18:33:26.358Z,43.40
2019-05-13T18:35:53.486Z,43.30
2019-05-13T18:38:21.128Z,43.30
2019-05-13T18:40:48.012Z,43.40
2019-05-13T18:43:15.145Z,43.40
2019-05-13T18:45:42.311Z,43.50
2019-05-13T18:48:09.424Z,43.40
2019-05-13T18:50:36.461Z,43.40
2019-05-13T18:53:03.641Z,43.30
2019-05-13T18:55:30.844Z,43.30
2019-05-13T18:57:57.913Z,43.30
2019-05-13T19:00:24.984Z,43.40
2019-05-13T19:02:52.158Z,43.30
2019-05-13T19:05:21.166Z,43.30
2019-05-13T19:07:46.407Z,43.40
2019-05-13T19:10:13.516Z,43.40
2019-05-13T19:12:41.999Z,43.40
2019-05-13T19:15:07.794Z,43.40
2019-05-13T19:17:36.331Z,43.30
2019-05-13T19:20:02.040Z,43.40
2019-05-13T19:22:29.164Z,43.50
2019-05-13T19:24:56.301Z,43.40
2019-05-13T19:27:23.469Z,44.00
2019-05-13T19:29:52.357Z,43.40
2019-05-13T19:32:17.673Z,43.50
2019-05-13T19:34:44.812Z,43.50
2019-05-13T19:37:11.983Z,43.40
2019-05-13T19:39:39.124Z,43.50
2019-05-13T19:42:06.259Z,43.50
2019-05-13T19:44:33.436Z,43.50
2019-05-13T19:47:01.989Z,43.50
2019-05-13T19:49:32.972Z,43.80
2019-05-13T19:51:54.889Z,43.40
2019-05-13T19:54:22.338Z,43.40
2019-05-13T19:56:51.857Z,43.50
2019-05-13T19:59:16.329Z,43.40
2019-05-13T20:01:43.476Z,43.40
2019-05-13T20:04:10.667Z,43.40
2019-05-13T20:06:37.716Z,43.50
2019-05-13T20:09:05.606Z,43.40
2019-05-13T20:11:32.764Z,43.40
2019-05-13T20:14:01.380Z,43.40
2019-05-13T20:16:27.089Z,43.40
2019-05-13T20:18:54.244Z,43.40
2019-05-13T20:21:21.396Z,43.40
2019-05-13T20:23:48.539Z,43.40
2019-05-13T20:26:15.619Z,43.40
2019-05-13T20:28:42.791Z,43.40
2019-05-13T20:31:11.089Z,43.40
2019-05-13T20:33:40.010Z,43.40
2019-05-13T20:36:04.212Z,43.30
2019-05-13T20:38:31.800Z,43.40
2019-05-13T20:40:58.474Z,43.40
2019-05-13T20:43:25.695Z,43.40
2019-05-13T20:45:52.807Z,43.50
2019-05-13T20:48:21.248Z,43.50
2019-05-13T20:50:47.057Z,43.50
2019-05-13T20:53:14.257Z,43.40
2019-05-13T20:55:41.830Z,43.40
2019-05-13T20:58:08.581Z,43.40
2019-05-13T21:00:35.775Z,44.10
2019-05-13T21:03:02.962Z,43.30
2019-05-13T21:05:31.951Z,43.40
2019-05-13T21:07:57.291Z,43.30
2019-05-13T21:10:24.313Z,43.40
2019-05-13T21:12:51.586Z,43.30
2019-05-13T21:15:18.529Z,43.30
2019-05-13T21:17:45.628Z,43.40
2019-05-13T21:20:19.457Z,43.50
2019-05-13T21:22:42.223Z,43.40
2019-05-13T21:25:07.022Z,43.30
2019-05-13T21:27:34.160Z,43.50
2019-05-13T21:30:01.380Z,43.40
2019-05-13T21:32:28.364Z,43.40
2019-05-13T21:34:55.502Z,43.40
2019-05-13T21:37:22.550Z,43.40
2019-05-13T21:39:51.682Z,43.30
2019-05-13T21:42:17.041Z,43.40
2019-05-13T21:44:44.204Z,43.50
2019-05-13T21:47:11.490Z,43.50
2019-05-13T21:49:38.378Z,43.50
2019-05-13T21:52:05.476Z,43.60
2019-05-13T21:54:33.579Z,43.40
2019-05-13T21:57:02.054Z,43.40
2019-05-13T21:59:26.686Z,43.40
2019-05-13T22:01:53.779Z,43.50
2019-05-13T22:04:21.478Z,44.20
2019-05-13T22:06:48.056Z,43.40
2019-05-13T22:09:15.227Z,43.50
2019-05-13T22:11:42.348Z,43.40
2019-05-13T22:14:11.339Z,43.50
2019-05-13T22:16:36.604Z,43.30
2019-05-13T22:19:03.755Z,43.60
2019-05-13T22:21:31.593Z,44.10
2019-05-13T22:23:58.203Z,43.40
2019-05-13T22:26:25.264Z,43.50
2019-05-13T22:28:52.420Z,43.50
2019-05-13T22:31:22.074Z,43.50
2019-05-13T22:33:46.807Z,43.40
2019-05-13T22:36:13.883Z,43.40
2019-05-13T22:38:42.601Z,43.50
2019-05-13T22:41:08.259Z,43.60
2019-05-13T22:43:35.351Z,43.50
2019-05-13T22:46:02.458Z,43.50
2019-05-13T22:48:31.694Z,43.50
2019-05-13T22:50:56.673Z,43.50
2019-05-13T22:53:23.847Z,43.50
2019-05-13T22:55:52.150Z,43.60
2019-05-13T22:58:18.188Z,43.50
2019-05-13T23:00:45.292Z,43.40
2019-05-13T23:03:12.432Z,43.50
2019-05-13T23:05:41.458Z,43.60
2019-05-13T23:08:06.687Z,43.60
2019-05-13T23:10:33.823Z,43.70
2019-05-13T23:13:02.161Z,43.40
2019-05-13T23:15:28.193Z,43.50
2019-05-13T23:17:55.324Z,43.40
2019-05-13T23:20:22.388Z,43.60
2019-05-13T23:22:51.700Z,43.50
2019-05-13T23:25:16.567Z,43.60
2019-05-13T23:27:43.705Z,43.50
2019-05-13T23:30:11.670Z,43.50
2019-05-13T23:32:37.948Z,43.50
2019-05-13T23:35:05.028Z,43.50
2019-05-13T23:37:32.137Z,43.50
2019-05-13T23:40:01.251Z,43.40
2019-05-13T23:42:26.480Z,43.40
2019-05-13T23:44:53.925Z,43.40
2019-05-13T23:47:21.801Z,43.40
2019-05-13T23:49:48.248Z,43.40
2019-05-13T23:52:15.517Z,43.40
2019-05-13T23:54:42.687Z,43.40
2019-05-13T23:57:11.794Z,43.40
2019-05-13T23:59:36.970Z,43.60
